sensor_id;sensor_type;location;lat;lon;timestamp;P1;durP1;ratioP1;P2;durP2;ratioP2
4377;SDS011;2203;53.686;9.994;2023-04-30T00:01:36;14.13;;;3.47;;
4377;SDS011;2203;53.686;9.994;2023-04-30T00:04:02;20.97;;;3.90;;
4377;SDS011;2203;53.686;9.994;2023-04-30T00:06:28;15.10;;;4.00;;
4377;SDS011;2203;53.686;9.994;2023-04-30T00:08:53;21.03;;;3.70;;
4377;SDS011;2203;53.686;9.994;2023-04-30T00:11:18;15.83;;;3.73;;
4377;SDS011;2203;53.686;9.994;2023-04-30T00:13:44;19.23;;;3.93;;
4377;SDS011;2203;53.686;9.994;2023-04-30T00:16:09;22.23;;;4.10;;
4377;SDS011;2203;53.686;9.994;2023-04-30T00:18:35;12.13;;;3.60;;
4377;SDS011;2203;53.686;9.994;2023-04-30T00:21:01;17.20;;;4.40;;
4377;SDS011;2203;53.686;9.994;2023-04-30T00:23:26;16.47;;;4.53;;
4377;SDS011;2203;53.686;9.994;2023-04-30T00:25:51;23.10;;;4.53;;
4377;SDS011;2203;53.686;9.994;2023-04-30T00:28:17;23.43;;;4.60;;
4377;SDS011;2203;53.686;9.994;2023-04-30T00:30:42;15.20;;;4.17;;
4377;SDS011;2203;53.686;9.994;2023-04-30T00:33:09;19.03;;;4.23;;
4377;SDS011;2203;53.686;9.994;2023-04-30T00:35:34;18.63;;;4.10;;
4377;SDS011;2203;53.686;9.994;2023-04-30T00:37:59;27.50;;;5.00;;
4377;SDS011;2203;53.686;9.994;2023-04-30T00:40:25;33.73;;;4.57;;
4377;SDS011;2203;53.686;9.994;2023-04-30T00:42:50;15.83;;;4.80;;
4377;SDS011;2203;53.686;9.994;2023-04-30T00:45:17;23.50;;;5.30;;
4377;SDS011;2203;53.686;9.994;2023-04-30T00:47:46;18.50;;;4.30;;
4377;SDS011;2203;53.686;9.994;2023-04-30T00:50:11;22.90;;;5.23;;
4377;SDS011;2203;53.686;9.994;2023-04-30T00:52:40;16.70;;;3.90;;
4377;SDS011;2203;53.686;9.994;2023-04-30T00:55:09;18.00;;;4.40;;
4377;SDS011;2203;53.686;9.994;2023-04-30T00:57:35;24.30;;;4.80;;
4377;SDS011;2203;53.686;9.994;2023-04-30T01:00:02;16.00;;;4.60;;
4377;SDS011;2203;53.686;9.994;2023-04-30T01:02:28;11.07;;;4.00;;
4377;SDS011;2203;53.686;9.994;2023-04-30T01:04:54;28.60;;;3.93;;
4377;SDS011;2203;53.686;9.994;2023-04-30T01:07:20;20.53;;;4.40;;
4377;SDS011;2203;53.686;9.994;2023-04-30T01:09:45;17.63;;;4.20;;
4377;SDS011;2203;53.686;9.994;2023-04-30T01:12:34;16.50;;;4.03;;
4377;SDS011;2203;53.686;9.994;2023-04-30T01:20:11;17.43;;;4.93;;
4377;SDS011;2203;53.686;9.994;2023-04-30T01:22:51;22.67;;;4.20;;
4377;SDS011;2203;53.686;9.994;2023-04-30T01:30:30;16.90;;;3.80;;
4377;SDS011;2203;53.686;9.994;2023-04-30T01:32:56;20.40;;;5.17;;
4377;SDS011;2203;53.686;9.994;2023-04-30T01:35:24;14.87;;;5.47;;
4377;SDS011;2203;53.686;9.994;2023-04-30T01:40:53;24.00;;;4.47;;
4377;SDS011;2203;53.686;9.994;2023-04-30T01:51:32;16.70;;;3.90;;
4377;SDS011;2203;53.686;9.994;2023-04-30T01:54:04;33.33;;;6.67;;
4377;SDS011;2203;53.686;9.994;2023-04-30T01:56:36;21.63;;;5.10;;
4377;SDS011;2203;53.686;9.994;2023-04-30T01:59:05;16.57;;;4.70;;
4377;SDS011;2203;53.686;9.994;2023-04-30T02:01:31;30.40;;;5.87;;
4377;SDS011;2203;53.686;9.994;2023-04-30T02:03:57;16.40;;;5.50;;
4377;SDS011;2203;53.686;9.994;2023-04-30T02:06:23;20.67;;;4.20;;
4377;SDS011;2203;53.686;9.994;2023-04-30T02:08:53;13.20;;;4.40;;
4377;SDS011;2203;53.686;9.994;2023-04-30T02:11:20;17.30;;;5.03;;
4377;SDS011;2203;53.686;9.994;2023-04-30T02:13:48;15.73;;;4.60;;
4377;SDS011;2203;53.686;9.994;2023-04-30T02:16:13;23.70;;;5.33;;
4377;SDS011;2203;53.686;9.994;2023-04-30T02:18:38;12.53;;;4.57;;
4377;SDS011;2203;53.686;9.994;2023-04-30T02:21:04;18.20;;;5.27;;
4377;SDS011;2203;53.686;9.994;2023-04-30T02:23:29;15.80;;;4.17;;
4377;SDS011;2203;53.686;9.994;2023-04-30T02:25:55;19.30;;;4.30;;
4377;SDS011;2203;53.686;9.994;2023-04-30T02:28:20;24.03;;;5.50;;
4377;SDS011;2203;53.686;9.994;2023-04-30T02:30:46;22.60;;;4.77;;
4377;SDS011;2203;53.686;9.994;2023-04-30T02:33:11;14.00;;;4.80;;
4377;SDS011;2203;53.686;9.994;2023-04-30T02:35:36;14.97;;;5.40;;
4377;SDS011;2203;53.686;9.994;2023-04-30T02:38:05;17.63;;;5.80;;
4377;SDS011;2203;53.686;9.994;2023-04-30T02:40:30;23.43;;;5.23;;
4377;SDS011;2203;53.686;9.994;2023-04-30T02:42:55;18.33;;;4.23;;
4377;SDS011;2203;53.686;9.994;2023-04-30T02:45:21;21.97;;;6.97;;
4377;SDS011;2203;53.686;9.994;2023-04-30T02:47:46;25.43;;;5.00;;
4377;SDS011;2203;53.686;9.994;2023-04-30T02:50:12;15.90;;;4.50;;
4377;SDS011;2203;53.686;9.994;2023-04-30T02:52:38;20.60;;;5.80;;
4377;SDS011;2203;53.686;9.994;2023-04-30T02:55:04;14.17;;;4.70;;
4377;SDS011;2203;53.686;9.994;2023-04-30T02:57:30;23.83;;;6.00;;
4377;SDS011;2203;53.686;9.994;2023-04-30T02:59:55;27.57;;;5.50;;
4377;SDS011;2203;53.686;9.994;2023-04-30T03:02:21;14.00;;;5.20;;
4377;SDS011;2203;53.686;9.994;2023-04-30T03:04:47;19.83;;;4.57;;
4377;SDS011;2203;53.686;9.994;2023-04-30T03:07:13;19.13;;;5.33;;
4377;SDS011;2203;53.686;9.994;2023-04-30T03:09:39;13.77;;;4.60;;
4377;SDS011;2203;53.686;9.994;2023-04-30T03:12:04;13.80;;;4.57;;
4377;SDS011;2203;53.686;9.994;2023-04-30T03:14:30;20.13;;;6.10;;
4377;SDS011;2203;53.686;9.994;2023-04-30T03:16:55;15.07;;;3.93;;
4377;SDS011;2203;53.686;9.994;2023-04-30T03:19:21;20.53;;;4.50;;
4377;SDS011;2203;53.686;9.994;2023-04-30T03:21:49;23.60;;;4.90;;
4377;SDS011;2203;53.686;9.994;2023-04-30T03:24:16;19.77;;;5.30;;
4377;SDS011;2203;53.686;9.994;2023-04-30T03:26:41;18.00;;;5.17;;
4377;SDS011;2203;53.686;9.994;2023-04-30T03:29:06;20.10;;;4.93;;
4377;SDS011;2203;53.686;9.994;2023-04-30T03:31:32;16.93;;;4.80;;
4377;SDS011;2203;53.686;9.994;2023-04-30T03:33:57;16.60;;;5.80;;
4377;SDS011;2203;53.686;9.994;2023-04-30T03:36:22;11.37;;;4.20;;
4377;SDS011;2203;53.686;9.994;2023-04-30T03:38:48;10.40;;;4.83;;
4377;SDS011;2203;53.686;9.994;2023-04-30T03:41:13;20.07;;;5.30;;
4377;SDS011;2203;53.686;9.994;2023-04-30T03:43:39;17.53;;;5.80;;
4377;SDS011;2203;53.686;9.994;2023-04-30T03:46:05;14.77;;;5.33;;
4377;SDS011;2203;53.686;9.994;2023-04-30T03:48:30;12.50;;;4.83;;
4377;SDS011;2203;53.686;9.994;2023-04-30T03:50:56;17.43;;;4.53;;
4377;SDS011;2203;53.686;9.994;2023-04-30T03:53:21;13.20;;;4.67;;
4377;SDS011;2203;53.686;9.994;2023-04-30T03:55:47;19.93;;;6.00;;
4377;SDS011;2203;53.686;9.994;2023-04-30T03:58:13;11.83;;;4.43;;
4377;SDS011;2203;53.686;9.994;2023-04-30T04:00:39;14.90;;;4.70;;
4377;SDS011;2203;53.686;9.994;2023-04-30T04:03:05;13.90;;;4.20;;
4377;SDS011;2203;53.686;9.994;2023-04-30T04:05:31;21.17;;;5.03;;
4377;SDS011;2203;53.686;9.994;2023-04-30T04:07:56;18.43;;;5.30;;
4377;SDS011;2203;53.686;9.994;2023-04-30T04:10:22;21.50;;;6.30;;
4377;SDS011;2203;53.686;9.994;2023-04-30T04:12:47;13.57;;;4.90;;
4377;SDS011;2203;53.686;9.994;2023-04-30T04:15:12;11.30;;;5.67;;
4377;SDS011;2203;53.686;9.994;2023-04-30T04:17:38;16.70;;;5.23;;
4377;SDS011;2203;53.686;9.994;2023-04-30T04:20:03;17.50;;;5.87;;
4377;SDS011;2203;53.686;9.994;2023-04-30T04:22:30;24.57;;;5.53;;
4377;SDS011;2203;53.686;9.994;2023-04-30T04:24:55;22.13;;;5.90;;
4377;SDS011;2203;53.686;9.994;2023-04-30T04:27:21;15.20;;;5.00;;
4377;SDS011;2203;53.686;9.994;2023-04-30T04:29:47;13.93;;;5.60;;
4377;SDS011;2203;53.686;9.994;2023-04-30T04:32:13;20.87;;;5.80;;
4377;SDS011;2203;53.686;9.994;2023-04-30T04:34:38;15.60;;;5.50;;
4377;SDS011;2203;53.686;9.994;2023-04-30T04:37:04;15.87;;;5.77;;
4377;SDS011;2203;53.686;9.994;2023-04-30T04:39:29;15.13;;;5.30;;
4377;SDS011;2203;53.686;9.994;2023-04-30T04:41:55;15.70;;;5.13;;
4377;SDS011;2203;53.686;9.994;2023-04-30T04:44:20;14.07;;;5.40;;
4377;SDS011;2203;53.686;9.994;2023-04-30T04:46:46;17.87;;;6.10;;
4377;SDS011;2203;53.686;9.994;2023-04-30T04:49:12;20.67;;;5.30;;
4377;SDS011;2203;53.686;9.994;2023-04-30T04:51:38;11.13;;;3.90;;
4377;SDS011;2203;53.686;9.994;2023-04-30T04:54:03;14.27;;;5.43;;
4377;SDS011;2203;53.686;9.994;2023-04-30T04:56:29;13.77;;;5.20;;
4377;SDS011;2203;53.686;9.994;2023-04-30T04:58:54;14.90;;;5.83;;
4377;SDS011;2203;53.686;9.994;2023-04-30T05:01:20;12.60;;;5.13;;
4377;SDS011;2203;53.686;9.994;2023-04-30T05:03:46;28.63;;;6.33;;
4377;SDS011;2203;53.686;9.994;2023-04-30T05:06:12;24.47;;;6.00;;
4377;SDS011;2203;53.686;9.994;2023-04-30T05:08:38;34.73;;;6.17;;
4377;SDS011;2203;53.686;9.994;2023-04-30T05:11:03;13.30;;;5.00;;
4377;SDS011;2203;53.686;9.994;2023-04-30T05:13:28;19.23;;;5.43;;
4377;SDS011;2203;53.686;9.994;2023-04-30T05:15:54;20.90;;;6.20;;
4377;SDS011;2203;53.686;9.994;2023-04-30T05:18:20;26.53;;;5.83;;
4377;SDS011;2203;53.686;9.994;2023-04-30T05:20:45;14.07;;;5.13;;
4377;SDS011;2203;53.686;9.994;2023-04-30T05:23:10;16.70;;;5.70;;
4377;SDS011;2203;53.686;9.994;2023-04-30T05:25:36;26.50;;;5.50;;
4377;SDS011;2203;53.686;9.994;2023-04-30T05:28:02;26.63;;;5.30;;
4377;SDS011;2203;53.686;9.994;2023-04-30T05:30:27;18.67;;;5.03;;
4377;SDS011;2203;53.686;9.994;2023-04-30T05:32:53;18.27;;;5.17;;
4377;SDS011;2203;53.686;9.994;2023-04-30T05:35:20;21.63;;;5.23;;
4377;SDS011;2203;53.686;9.994;2023-04-30T05:37:46;13.57;;;4.63;;
4377;SDS011;2203;53.686;9.994;2023-04-30T05:40:12;16.37;;;5.90;;
4377;SDS011;2203;53.686;9.994;2023-04-30T05:42:37;21.97;;;5.40;;
4377;SDS011;2203;53.686;9.994;2023-04-30T05:45:05;17.27;;;4.90;;
4377;SDS011;2203;53.686;9.994;2023-04-30T05:47:31;19.73;;;4.20;;
4377;SDS011;2203;53.686;9.994;2023-04-30T05:49:56;18.50;;;5.10;;
4377;SDS011;2203;53.686;9.994;2023-04-30T05:52:22;12.50;;;4.10;;
4377;SDS011;2203;53.686;9.994;2023-04-30T05:54:47;26.07;;;4.67;;
4377;SDS011;2203;53.686;9.994;2023-04-30T05:57:12;12.30;;;3.93;;
4377;SDS011;2203;53.686;9.994;2023-04-30T05:59:38;12.43;;;4.67;;
4377;SDS011;2203;53.686;9.994;2023-04-30T06:02:03;23.47;;;4.67;;
4377;SDS011;2203;53.686;9.994;2023-04-30T06:04:29;26.30;;;4.50;;
4377;SDS011;2203;53.686;9.994;2023-04-30T06:06:54;18.97;;;4.00;;
4377;SDS011;2203;53.686;9.994;2023-04-30T06:09:20;21.07;;;4.20;;
4377;SDS011;2203;53.686;9.994;2023-04-30T06:11:46;11.90;;;4.43;;
4377;SDS011;2203;53.686;9.994;2023-04-30T06:14:14;13.50;;;4.40;;
4377;SDS011;2203;53.686;9.994;2023-04-30T06:16:40;27.57;;;5.20;;
4377;SDS011;2203;53.686;9.994;2023-04-30T06:19:06;17.00;;;4.67;;
4377;SDS011;2203;53.686;9.994;2023-04-30T06:21:31;20.93;;;4.73;;
4377;SDS011;2203;53.686;9.994;2023-04-30T06:23:56;21.47;;;4.20;;
4377;SDS011;2203;53.686;9.994;2023-04-30T06:26:22;20.73;;;4.20;;
4377;SDS011;2203;53.686;9.994;2023-04-30T06:28:47;12.10;;;4.20;;
4377;SDS011;2203;53.686;9.994;2023-04-30T06:31:12;21.03;;;4.40;;
4377;SDS011;2203;53.686;9.994;2023-04-30T06:33:38;19.30;;;4.27;;
4377;SDS011;2203;53.686;9.994;2023-04-30T06:36:03;20.03;;;4.00;;
4377;SDS011;2203;53.686;9.994;2023-04-30T06:38:29;19.53;;;3.83;;
4377;SDS011;2203;53.686;9.994;2023-04-30T06:40:55;12.40;;;3.03;;
4377;SDS011;2203;53.686;9.994;2023-04-30T06:43:20;10.47;;;2.80;;
4377;SDS011;2203;53.686;9.994;2023-04-30T06:45:46;14.40;;;3.60;;
4377;SDS011;2203;53.686;9.994;2023-04-30T06:48:12;10.47;;;3.03;;
4377;SDS011;2203;53.686;9.994;2023-04-30T06:50:37;17.93;;;3.07;;
4377;SDS011;2203;53.686;9.994;2023-04-30T06:53:09;13.50;;;3.30;;
4377;SDS011;2203;53.686;9.994;2023-04-30T06:55:35;22.83;;;3.33;;
4377;SDS011;2203;53.686;9.994;2023-04-30T06:58:00;12.70;;;4.27;;
4377;SDS011;2203;53.686;9.994;2023-04-30T07:00:26;19.23;;;3.67;;
4377;SDS011;2203;53.686;9.994;2023-04-30T07:02:54;8.53;;;3.40;;
4377;SDS011;2203;53.686;9.994;2023-04-30T07:05:21;13.07;;;3.07;;
4377;SDS011;2203;53.686;9.994;2023-04-30T07:07:46;11.70;;;3.03;;
4377;SDS011;2203;53.686;9.994;2023-04-30T07:10:11;13.07;;;3.63;;
4377;SDS011;2203;53.686;9.994;2023-04-30T07:12:37;17.30;;;3.50;;
4377;SDS011;2203;53.686;9.994;2023-04-30T07:15:02;23.93;;;3.40;;
4377;SDS011;2203;53.686;9.994;2023-04-30T07:17:28;12.17;;;2.93;;
4377;SDS011;2203;53.686;9.994;2023-04-30T07:19:54;14.73;;;3.43;;
4377;SDS011;2203;53.686;9.994;2023-04-30T07:22:19;19.30;;;3.20;;
4377;SDS011;2203;53.686;9.994;2023-04-30T07:24:45;9.93;;;2.50;;
4377;SDS011;2203;53.686;9.994;2023-04-30T07:27:11;11.53;;;2.73;;
4377;SDS011;2203;53.686;9.994;2023-04-30T07:29:36;13.30;;;3.30;;
4377;SDS011;2203;53.686;9.994;2023-04-30T07:32:01;13.40;;;3.70;;
4377;SDS011;2203;53.686;9.994;2023-04-30T07:34:27;11.53;;;2.90;;
4377;SDS011;2203;53.686;9.994;2023-04-30T07:36:52;18.37;;;3.30;;
4377;SDS011;2203;53.686;9.994;2023-04-30T07:39:18;10.83;;;2.37;;
4377;SDS011;2203;53.686;9.994;2023-04-30T07:41:43;9.73;;;2.37;;
4377;SDS011;2203;53.686;9.994;2023-04-30T07:44:08;16.60;;;3.30;;
4377;SDS011;2203;53.686;9.994;2023-04-30T07:46:35;9.37;;;2.40;;
4377;SDS011;2203;53.686;9.994;2023-04-30T07:49:01;7.33;;;2.60;;
4377;SDS011;2203;53.686;9.994;2023-04-30T07:51:26;11.17;;;2.53;;
4377;SDS011;2203;53.686;9.994;2023-04-30T07:53:52;13.53;;;2.93;;
4377;SDS011;2203;53.686;9.994;2023-04-30T07:56:17;17.40;;;3.20;;
4377;SDS011;2203;53.686;9.994;2023-04-30T07:58:43;12.10;;;3.00;;
4377;SDS011;2203;53.686;9.994;2023-04-30T08:01:08;10.90;;;2.70;;
4377;SDS011;2203;53.686;9.994;2023-04-30T08:03:33;13.33;;;3.47;;
4377;SDS011;2203;53.686;9.994;2023-04-30T08:05:59;8.40;;;2.57;;
4377;SDS011;2203;53.686;9.994;2023-04-30T08:08:24;13.07;;;3.77;;
4377;SDS011;2203;53.686;9.994;2023-04-30T08:10:50;10.10;;;3.77;;
4377;SDS011;2203;53.686;9.994;2023-04-30T08:13:15;19.63;;;3.50;;
4377;SDS011;2203;53.686;9.994;2023-04-30T08:15:40;14.20;;;3.17;;
4377;SDS011;2203;53.686;9.994;2023-04-30T08:18:06;8.40;;;3.17;;
4377;SDS011;2203;53.686;9.994;2023-04-30T08:20:32;9.70;;;2.90;;
4377;SDS011;2203;53.686;9.994;2023-04-30T08:22:57;11.13;;;2.93;;
4377;SDS011;2203;53.686;9.994;2023-04-30T08:25:23;8.93;;;3.70;;
4377;SDS011;2203;53.686;9.994;2023-04-30T08:27:48;18.63;;;3.03;;
4377;SDS011;2203;53.686;9.994;2023-04-30T08:30:14;12.70;;;3.87;;
4377;SDS011;2203;53.686;9.994;2023-04-30T08:32:39;12.50;;;2.80;;
4377;SDS011;2203;53.686;9.994;2023-04-30T08:35:05;8.07;;;3.57;;
4377;SDS011;2203;53.686;9.994;2023-04-30T08:37:31;7.60;;;3.00;;
4377;SDS011;2203;53.686;9.994;2023-04-30T08:39:57;25.77;;;3.20;;
4377;SDS011;2203;53.686;9.994;2023-04-30T08:42:33;14.23;;;2.83;;
4377;SDS011;2203;53.686;9.994;2023-04-30T08:45:00;18.70;;;3.20;;
4377;SDS011;2203;53.686;9.994;2023-04-30T08:47:28;17.50;;;3.27;;
4377;SDS011;2203;53.686;9.994;2023-04-30T08:49:53;14.27;;;3.67;;
4377;SDS011;2203;53.686;9.994;2023-04-30T08:52:19;11.57;;;3.20;;
4377;SDS011;2203;53.686;9.994;2023-04-30T08:54:46;13.87;;;2.53;;
4377;SDS011;2203;53.686;9.994;2023-04-30T08:57:12;20.33;;;3.37;;
4377;SDS011;2203;53.686;9.994;2023-04-30T08:59:38;12.23;;;2.53;;
4377;SDS011;2203;53.686;9.994;2023-04-30T09:02:03;12.00;;;2.77;;
4377;SDS011;2203;53.686;9.994;2023-04-30T09:04:29;6.07;;;1.80;;
4377;SDS011;2203;53.686;9.994;2023-04-30T09:06:54;9.23;;;2.53;;
4377;SDS011;2203;53.686;9.994;2023-04-30T09:09:36;15.00;;;3.03;;
4377;SDS011;2203;53.686;9.994;2023-04-30T09:12:15;14.10;;;2.60;;
4377;SDS011;2203;53.686;9.994;2023-04-30T09:17:25;13.00;;;4.60;;
4377;SDS011;2203;53.686;9.994;2023-04-30T09:19:51;17.43;;;3.23;;
4377;SDS011;2203;53.686;9.994;2023-04-30T09:22:18;7.27;;;2.90;;
4377;SDS011;2203;53.686;9.994;2023-04-30T09:24:45;10.23;;;2.83;;
4377;SDS011;2203;53.686;9.994;2023-04-30T09:27:18;12.57;;;2.40;;
4377;SDS011;2203;53.686;9.994;2023-04-30T09:29:45;7.20;;;3.10;;
4377;SDS011;2203;53.686;9.994;2023-04-30T09:32:11;11.13;;;2.60;;
4377;SDS011;2203;53.686;9.994;2023-04-30T09:34:37;18.33;;;4.17;;
4377;SDS011;2203;53.686;9.994;2023-04-30T09:37:02;9.60;;;2.63;;
4377;SDS011;2203;53.686;9.994;2023-04-30T09:39:29;13.00;;;3.00;;
4377;SDS011;2203;53.686;9.994;2023-04-30T09:42:07;16.27;;;2.50;;
4377;SDS011;2203;53.686;9.994;2023-04-30T09:44:40;8.10;;;2.50;;
4377;SDS011;2203;53.686;9.994;2023-04-30T09:47:17;13.73;;;3.17;;
4377;SDS011;2203;53.686;9.994;2023-04-30T09:49:47;6.57;;;2.23;;
4377;SDS011;2203;53.686;9.994;2023-04-30T09:52:15;6.90;;;2.70;;
4377;SDS011;2203;53.686;9.994;2023-04-30T09:54:41;12.10;;;2.60;;
4377;SDS011;2203;53.686;9.994;2023-04-30T09:57:09;19.03;;;3.80;;
4377;SDS011;2203;53.686;9.994;2023-04-30T09:59:35;8.60;;;2.57;;
4377;SDS011;2203;53.686;9.994;2023-04-30T10:02:04;6.43;;;2.50;;
4377;SDS011;2203;53.686;9.994;2023-04-30T10:04:34;10.93;;;2.77;;
4377;SDS011;2203;53.686;9.994;2023-04-30T10:09:38;10.63;;;3.07;;
4377;SDS011;2203;53.686;9.994;2023-04-30T10:12:05;10.50;;;2.50;;
4377;SDS011;2203;53.686;9.994;2023-04-30T10:14:33;14.63;;;2.60;;
4377;SDS011;2203;53.686;9.994;2023-04-30T10:17:10;10.07;;;3.20;;
4377;SDS011;2203;53.686;9.994;2023-04-30T10:19:38;8.53;;;2.80;;
4377;SDS011;2203;53.686;9.994;2023-04-30T10:22:07;7.13;;;2.67;;
4377;SDS011;2203;53.686;9.994;2023-04-30T10:24:33;7.53;;;2.90;;
4377;SDS011;2203;53.686;9.994;2023-04-30T10:26:58;5.00;;;2.47;;
4377;SDS011;2203;53.686;9.994;2023-04-30T10:29:24;11.93;;;2.80;;
4377;SDS011;2203;53.686;9.994;2023-04-30T10:31:50;10.43;;;2.60;;
4377;SDS011;2203;53.686;9.994;2023-04-30T10:39:47;8.10;;;3.23;;
4377;SDS011;2203;53.686;9.994;2023-04-30T10:42:13;10.70;;;2.90;;
4377;SDS011;2203;53.686;9.994;2023-04-30T10:44:39;5.43;;;3.03;;
4377;SDS011;2203;53.686;9.994;2023-04-30T10:47:05;9.70;;;2.63;;
4377;SDS011;2203;53.686;9.994;2023-04-30T10:49:31;11.00;;;3.00;;
4377;SDS011;2203;53.686;9.994;2023-04-30T10:52:00;11.57;;;2.63;;
4377;SDS011;2203;53.686;9.994;2023-04-30T10:54:30;15.50;;;3.17;;
4377;SDS011;2203;53.686;9.994;2023-04-30T10:59:36;8.53;;;3.00;;
4377;SDS011;2203;53.686;9.994;2023-04-30T11:02:02;12.13;;;2.87;;
4377;SDS011;2203;53.686;9.994;2023-04-30T11:04:27;7.90;;;2.60;;
4377;SDS011;2203;53.686;9.994;2023-04-30T11:09:36;7.67;;;2.43;;
4377;SDS011;2203;53.686;9.994;2023-04-30T11:12:09;6.13;;;2.40;;
4377;SDS011;2203;53.686;9.994;2023-04-30T11:14:39;6.37;;;2.07;;
4377;SDS011;2203;53.686;9.994;2023-04-30T11:17:05;9.97;;;2.50;;
4377;SDS011;2203;53.686;9.994;2023-04-30T11:19:31;6.63;;;2.20;;
4377;SDS011;2203;53.686;9.994;2023-04-30T11:27:24;10.10;;;3.10;;
4377;SDS011;2203;53.686;9.994;2023-04-30T11:29:51;12.00;;;2.97;;
4377;SDS011;2203;53.686;9.994;2023-04-30T11:32:17;9.90;;;2.60;;
4377;SDS011;2203;53.686;9.994;2023-04-30T11:34:43;11.03;;;2.63;;
4377;SDS011;2203;53.686;9.994;2023-04-30T11:37:10;15.70;;;3.80;;
4377;SDS011;2203;53.686;9.994;2023-04-30T11:39:40;18.27;;;4.07;;
4377;SDS011;2203;53.686;9.994;2023-04-30T11:42:07;13.50;;;3.00;;
4377;SDS011;2203;53.686;9.994;2023-04-30T11:44:32;6.67;;;3.07;;
4377;SDS011;2203;53.686;9.994;2023-04-30T11:46:58;12.03;;;3.03;;
4377;SDS011;2203;53.686;9.994;2023-04-30T11:49:25;15.60;;;3.37;;
4377;SDS011;2203;53.686;9.994;2023-04-30T11:51:51;9.17;;;3.17;;
4377;SDS011;2203;53.686;9.994;2023-04-30T11:54:17;5.57;;;3.33;;
4377;SDS011;2203;53.686;9.994;2023-04-30T11:56:46;9.53;;;2.80;;
4377;SDS011;2203;53.686;9.994;2023-04-30T11:59:15;16.17;;;3.73;;
4377;SDS011;2203;53.686;9.994;2023-04-30T12:01:41;9.63;;;3.17;;
4377;SDS011;2203;53.686;9.994;2023-04-30T12:04:08;5.80;;;2.57;;
4377;SDS011;2203;53.686;9.994;2023-04-30T12:06:33;12.87;;;3.70;;
4377;SDS011;2203;53.686;9.994;2023-04-30T12:08:59;7.63;;;3.13;;
4377;SDS011;2203;53.686;9.994;2023-04-30T12:11:28;12.90;;;3.30;;
4377;SDS011;2203;53.686;9.994;2023-04-30T12:13:55;10.60;;;3.73;;
4377;SDS011;2203;53.686;9.994;2023-04-30T12:16:45;10.30;;;3.70;;
4377;SDS011;2203;53.686;9.994;2023-04-30T12:19:17;8.60;;;3.23;;
4377;SDS011;2203;53.686;9.994;2023-04-30T12:21:45;8.70;;;3.00;;
4377;SDS011;2203;53.686;9.994;2023-04-30T12:24:12;13.30;;;3.93;;
4377;SDS011;2203;53.686;9.994;2023-04-30T12:26:39;14.93;;;3.50;;
4377;SDS011;2203;53.686;9.994;2023-04-30T12:29:07;12.93;;;3.43;;
4377;SDS011;2203;53.686;9.994;2023-04-30T12:31:35;14.70;;;3.43;;
4377;SDS011;2203;53.686;9.994;2023-04-30T12:34:04;10.97;;;3.50;;
4377;SDS011;2203;53.686;9.994;2023-04-30T12:36:31;9.17;;;3.57;;
4377;SDS011;2203;53.686;9.994;2023-04-30T12:39:15;15.70;;;3.70;;
4377;SDS011;2203;53.686;9.994;2023-04-30T12:44:13;11.20;;;2.63;;
4377;SDS011;2203;53.686;9.994;2023-04-30T12:46:46;9.27;;;3.63;;
4377;SDS011;2203;53.686;9.994;2023-04-30T12:49:22;7.00;;;3.13;;
4377;SDS011;2203;53.686;9.994;2023-04-30T12:51:49;8.70;;;3.57;;
4377;SDS011;2203;53.686;9.994;2023-04-30T12:54:15;12.90;;;3.07;;
4377;SDS011;2203;53.686;9.994;2023-04-30T12:57:05;9.00;;;2.97;;
4377;SDS011;2203;53.686;9.994;2023-04-30T12:59:33;18.33;;;3.60;;
4377;SDS011;2203;53.686;9.994;2023-04-30T13:02:12;8.63;;;3.10;;
4377;SDS011;2203;53.686;9.994;2023-04-30T13:04:39;11.83;;;3.53;;
4377;SDS011;2203;53.686;9.994;2023-04-30T13:07:05;11.40;;;3.00;;
4377;SDS011;2203;53.686;9.994;2023-04-30T13:09:32;13.40;;;3.80;;
4377;SDS011;2203;53.686;9.994;2023-04-30T13:11:57;8.53;;;3.07;;
4377;SDS011;2203;53.686;9.994;2023-04-30T13:14:23;7.87;;;3.37;;
4377;SDS011;2203;53.686;9.994;2023-04-30T13:16:48;7.97;;;3.10;;
4377;SDS011;2203;53.686;9.994;2023-04-30T13:19:14;10.70;;;3.33;;
4377;SDS011;2203;53.686;9.994;2023-04-30T13:21:40;8.03;;;2.93;;
4377;SDS011;2203;53.686;9.994;2023-04-30T13:24:05;16.90;;;3.80;;
4377;SDS011;2203;53.686;9.994;2023-04-30T13:26:31;11.20;;;4.00;;
4377;SDS011;2203;53.686;9.994;2023-04-30T13:28:56;14.97;;;4.17;;
4377;SDS011;2203;53.686;9.994;2023-04-30T13:31:21;13.20;;;3.07;;
4377;SDS011;2203;53.686;9.994;2023-04-30T13:33:47;12.17;;;3.20;;
4377;SDS011;2203;53.686;9.994;2023-04-30T13:36:13;8.20;;;2.90;;
4377;SDS011;2203;53.686;9.994;2023-04-30T13:38:39;18.60;;;3.97;;
4377;SDS011;2203;53.686;9.994;2023-04-30T13:41:04;7.50;;;2.93;;
4377;SDS011;2203;53.686;9.994;2023-04-30T13:43:30;6.73;;;2.90;;
4377;SDS011;2203;53.686;9.994;2023-04-30T13:45:56;8.37;;;2.90;;
4377;SDS011;2203;53.686;9.994;2023-04-30T13:48:23;6.30;;;3.13;;
4377;SDS011;2203;53.686;9.994;2023-04-30T13:50:49;6.63;;;3.03;;
4377;SDS011;2203;53.686;9.994;2023-04-30T13:53:16;11.90;;;3.27;;
4377;SDS011;2203;53.686;9.994;2023-04-30T13:55:41;12.37;;;3.40;;
4377;SDS011;2203;53.686;9.994;2023-04-30T13:58:07;16.17;;;3.00;;
4377;SDS011;2203;53.686;9.994;2023-04-30T14:00:32;8.47;;;3.20;;
4377;SDS011;2203;53.686;9.994;2023-04-30T14:02:58;11.83;;;2.93;;
4377;SDS011;2203;53.686;9.994;2023-04-30T14:05:23;15.70;;;3.07;;
4377;SDS011;2203;53.686;9.994;2023-04-30T14:07:48;8.73;;;2.67;;
4377;SDS011;2203;53.686;9.994;2023-04-30T14:10:14;14.83;;;3.00;;
4377;SDS011;2203;53.686;9.994;2023-04-30T14:12:39;6.23;;;3.27;;
4377;SDS011;2203;53.686;9.994;2023-04-30T14:15:05;10.93;;;3.60;;
4377;SDS011;2203;53.686;9.994;2023-04-30T14:17:31;6.07;;;2.70;;
4377;SDS011;2203;53.686;9.994;2023-04-30T14:19:56;7.57;;;3.07;;
4377;SDS011;2203;53.686;9.994;2023-04-30T14:22:21;12.13;;;2.77;;
4377;SDS011;2203;53.686;9.994;2023-04-30T14:24:48;8.80;;;3.10;;
4377;SDS011;2203;53.686;9.994;2023-04-30T14:27:14;8.07;;;2.40;;
4377;SDS011;2203;53.686;9.994;2023-04-30T14:29:39;8.67;;;2.80;;
4377;SDS011;2203;53.686;9.994;2023-04-30T14:32:05;9.10;;;2.37;;
4377;SDS011;2203;53.686;9.994;2023-04-30T14:34:30;5.77;;;2.50;;
4377;SDS011;2203;53.686;9.994;2023-04-30T14:36:57;5.93;;;2.90;;
4377;SDS011;2203;53.686;9.994;2023-04-30T14:39:23;11.67;;;3.33;;
4377;SDS011;2203;53.686;9.994;2023-04-30T14:41:50;10.53;;;3.20;;
4377;SDS011;2203;53.686;9.994;2023-04-30T14:44:15;11.07;;;3.40;;
4377;SDS011;2203;53.686;9.994;2023-04-30T14:46:40;7.33;;;2.90;;
4377;SDS011;2203;53.686;9.994;2023-04-30T14:49:06;24.23;;;2.90;;
4377;SDS011;2203;53.686;9.994;2023-04-30T14:51:31;15.37;;;3.30;;
4377;SDS011;2203;53.686;9.994;2023-04-30T14:53:57;6.43;;;2.90;;
4377;SDS011;2203;53.686;9.994;2023-04-30T14:56:23;6.60;;;2.47;;
4377;SDS011;2203;53.686;9.994;2023-04-30T14:58:48;9.40;;;3.07;;
4377;SDS011;2203;53.686;9.994;2023-04-30T15:01:15;15.80;;;2.97;;
4377;SDS011;2203;53.686;9.994;2023-04-30T15:03:41;8.00;;;3.20;;
4377;SDS011;2203;53.686;9.994;2023-04-30T15:06:06;8.80;;;2.83;;
4377;SDS011;2203;53.686;9.994;2023-04-30T15:08:32;14.33;;;3.37;;
4377;SDS011;2203;53.686;9.994;2023-04-30T15:10:57;7.90;;;3.30;;
4377;SDS011;2203;53.686;9.994;2023-04-30T15:13:23;8.00;;;2.70;;
4377;SDS011;2203;53.686;9.994;2023-04-30T15:15:48;10.37;;;3.00;;
4377;SDS011;2203;53.686;9.994;2023-04-30T15:18:14;9.40;;;2.67;;
4377;SDS011;2203;53.686;9.994;2023-04-30T15:20:39;10.87;;;3.20;;
4377;SDS011;2203;53.686;9.994;2023-04-30T15:23:05;10.63;;;3.30;;
4377;SDS011;2203;53.686;9.994;2023-04-30T15:25:30;12.80;;;3.00;;
4377;SDS011;2203;53.686;9.994;2023-04-30T15:27:56;6.10;;;2.70;;
4377;SDS011;2203;53.686;9.994;2023-04-30T15:30:22;16.37;;;3.90;;
4377;SDS011;2203;53.686;9.994;2023-04-30T15:32:47;10.20;;;2.93;;
4377;SDS011;2203;53.686;9.994;2023-04-30T15:35:13;9.00;;;2.93;;
4377;SDS011;2203;53.686;9.994;2023-04-30T15:37:38;9.00;;;2.90;;
4377;SDS011;2203;53.686;9.994;2023-04-30T15:40:04;7.53;;;3.00;;
4377;SDS011;2203;53.686;9.994;2023-04-30T15:42:30;4.80;;;2.80;;
4377;SDS011;2203;53.686;9.994;2023-04-30T15:44:57;8.93;;;2.70;;
4377;SDS011;2203;53.686;9.994;2023-04-30T15:47:23;9.27;;;3.37;;